sensor_id;sensor_type;location;lat;lon;timestamp;pressure;altitude;pressure_sealevel;temperature;humidity
13011;BME280;6786;57.632;11.962;2022-09-01T00:00:13;102053.09;;;22.30;54.36
13011;BME280;6786;57.632;11.962;2022-09-01T00:02:48;102058.50;;;22.30;54.38
13011;BME280;6786;57.632;11.962;2022-09-01T00:05:17;102063.88;;;22.30;54.38
13011;BME280;6786;57.632;11.962;2022-09-01T00:07:45;102059.47;;;22.29;54.32
13011;BME280;6786;57.632;11.962;2022-09-01T00:10:14;102020.56;;;22.11;54.38
13011;BME280;6786;57.632;11.962;2022-09-01T00:12:42;102057.63;;;22.29;54.01
13011;BME280;6786;57.632;11.962;2022-09-01T00:15:12;102053.22;;;22.28;54.15
13011;BME280;6786;57.632;11.962;2022-09-01T00:17:40;102054.09;;;22.29;54.04
13011;BME280;6786;57.632;11.962;2022-09-01T00:20:10;102058.50;;;22.30;53.97
13011;BME280;6786;57.632;11.962;2022-09-01T00:22:43;102056.78;;;22.29;54.17
13011;BME280;6786;57.632;11.962;2022-09-01T00:25:11;102055.81;;;22.30;54.20
13011;BME280;6786;57.632;11.962;2022-09-01T00:27:39;102047.72;;;22.30;53.92
13011;BME280;6786;57.632;11.962;2022-09-01T00:30:09;102061.31;;;22.28;53.99
13011;BME280;6786;57.632;11.962;2022-09-01T00:32:37;102053.34;;;22.27;54.41
13011;BME280;6786;57.632;11.962;2022-09-01T00:35:05;102035.88;;;22.21;54.32
13011;BME280;6786;57.632;11.962;2022-09-01T00:37:35;102046.13;;;22.27;54.37
13011;BME280;6786;57.632;11.962;2022-09-01T00:40:04;102043.31;;;22.29;54.35
13011;BME280;6786;57.632;11.962;2022-09-01T00:42:33;102046.84;;;22.29;54.19
13011;BME280;6786;57.632;11.962;2022-09-01T00:45:01;102031.56;;;22.30;53.92
13011;BME280;6786;57.632;11.962;2022-09-01T00:47:29;102035.50;;;22.26;54.20
13011;BME280;6786;57.632;11.962;2022-09-01T00:49:57;102041.59;;;22.28;53.96
13011;BME280;6786;57.632;11.962;2022-09-01T00:52:30;102035.25;;;22.29;54.33
13011;BME280;6786;57.632;11.962;2022-09-01T00:55:07;102034.38;;;22.28;53.93
13011;BME280;6786;57.632;11.962;2022-09-01T00:57:36;102035.38;;;22.27;54.25
13011;BME280;6786;57.632;11.962;2022-09-01T01:00:08;102027.28;;;22.27;54.31
13011;BME280;6786;57.632;11.962;2022-09-01T01:02:37;102044.28;;;22.28;54.28
13011;BME280;6786;57.632;11.962;2022-09-01T01:05:07;102038.06;;;22.27;53.97
13011;BME280;6786;57.632;11.962;2022-09-01T01:07:41;102038.91;;;22.28;54.25
13011;BME280;6786;57.632;11.962;2022-09-01T01:10:16;102032.66;;;22.27;53.82
13011;BME280;6786;57.632;11.962;2022-09-01T01:12:45;102031.81;;;22.27;53.83
13011;BME280;6786;57.632;11.962;2022-09-01T01:15:17;102026.41;;;22.27;54.05
13011;BME280;6786;57.632;11.962;2022-09-01T01:17:46;102029.09;;;22.27;53.98
13011;BME280;6786;57.632;11.962;2022-09-01T01:20:15;102032.53;;;22.29;53.73
13011;BME280;6786;57.632;11.962;2022-09-01T01:23:08;102031.56;;;22.30;53.87
13011;BME280;6786;57.632;11.962;2022-09-01T01:25:41;102029.84;;;22.29;53.88
13011;BME280;6786;57.632;11.962;2022-09-01T01:28:12;102031.56;;;22.30;53.71
13011;BME280;6786;57.632;11.962;2022-09-01T01:30:45;102029.59;;;22.32;53.99
13011;BME280;6786;57.632;11.962;2022-09-01T01:33:14;102023.34;;;22.31;53.56
13011;BME280;6786;57.632;11.962;2022-09-01T01:35:44;102027.88;;;22.31;54.04
13011;BME280;6786;57.632;11.962;2022-09-01T01:38:12;102030.56;;;22.31;53.86
13011;BME280;6786;57.632;11.962;2022-09-01T01:40:42;102018.94;;;22.30;53.69
13011;BME280;6786;57.632;11.962;2022-09-01T01:43:11;102017.09;;;22.31;53.64
13011;BME280;6786;57.632;11.962;2022-09-01T01:45:48;102020.28;;;22.25;53.88
13011;BME280;6786;57.632;11.962;2022-09-01T01:48:18;102020.53;;;22.33;53.65
13011;BME280;6786;57.632;11.962;2022-09-01T01:50:48;102027.63;;;22.34;53.81
13011;BME280;6786;57.632;11.962;2022-09-01T01:53:17;102025.91;;;22.33;53.66
13011;BME280;6786;57.632;11.962;2022-09-01T01:55:47;102031.31;;;22.33;53.78
13011;BME280;6786;57.632;11.962;2022-09-01T01:58:16;102029.59;;;22.32;53.46
13011;BME280;6786;57.632;11.962;2022-09-01T02:00:46;102029.59;;;22.32;53.78
13011;BME280;6786;57.632;11.962;2022-09-01T02:03:16;102035.00;;;22.32;53.45
13011;BME280;6786;57.632;11.962;2022-09-01T02:05:46;102028.75;;;22.31;53.92
13011;BME280;6786;57.632;11.962;2022-09-01T02:08:15;102030.44;;;22.32;53.77
13011;BME280;6786;57.632;11.962;2022-09-01T02:10:51;101983.13;;;22.08;53.45
13011;BME280;6786;57.632;11.962;2022-09-01T02:13:21;102025.06;;;22.32;53.53
13011;BME280;6786;57.632;11.962;2022-09-01T02:16:00;102013.44;;;22.32;53.80
13011;BME280;6786;57.632;11.962;2022-09-01T02:18:31;102018.22;;;22.28;53.72
13011;BME280;6786;57.632;11.962;2022-09-01T02:21:02;102020.03;;;22.28;53.78
13011;BME280;6786;57.632;11.962;2022-09-01T02:23:42;102019.31;;;22.26;53.54
13011;BME280;6786;57.632;11.962;2022-09-01T02:26:11;102017.34;;;22.28;53.61
13011;BME280;6786;57.632;11.962;2022-09-01T02:28:44;102010.00;;;22.30;53.72
13011;BME280;6786;57.632;11.962;2022-09-01T02:31:22;102019.06;;;22.29;53.35
13011;BME280;6786;57.632;11.962;2022-09-01T02:33:51;102010.25;;;22.27;53.37
13011;BME280;6786;57.632;11.962;2022-09-01T02:36:20;102010.25;;;22.27;53.70
13011;BME280;6786;57.632;11.962;2022-09-01T02:38:52;102013.94;;;22.26;53.72
13011;BME280;6786;57.632;11.962;2022-09-01T02:41:24;102010.25;;;22.27;53.32
13011;BME280;6786;57.632;11.962;2022-09-01T02:43:55;102019.31;;;22.26;53.37
13011;BME280;6786;57.632;11.962;2022-09-01T02:46:28;102015.66;;;22.27;53.62
13011;BME280;6786;57.632;11.962;2022-09-01T02:48:56;102013.94;;;22.26;53.35
13011;BME280;6786;57.632;11.962;2022-09-01T02:51:26;102008.56;;;22.26;53.60
13011;BME280;6786;57.632;11.962;2022-09-01T02:53:54;102011.25;;;22.26;53.75
13011;BME280;6786;57.632;11.962;2022-09-01T02:56:25;102006.56;;;22.28;53.47
13011;BME280;6786;57.632;11.962;2022-09-01T02:58:53;102006.31;;;22.31;53.32
13011;BME280;6786;57.632;11.962;2022-09-01T03:01:24;102004.63;;;22.30;53.51
13011;BME280;6786;57.632;11.962;2022-09-01T03:03:58;102006.31;;;22.31;53.31
13011;BME280;6786;57.632;11.962;2022-09-01T03:06:27;102010.00;;;22.30;53.19
13011;BME280;6786;57.632;11.962;2022-09-01T03:09:00;102008.31;;;22.29;53.27
13011;BME280;6786;57.632;11.962;2022-09-01T03:11:32;102004.63;;;22.30;53.40
13011;BME280;6786;57.632;11.962;2022-09-01T03:14:01;102004.63;;;22.30;53.17
13011;BME280;6786;57.632;11.962;2022-09-01T03:16:29;102004.63;;;22.30;53.48
13011;BME280;6786;57.632;11.962;2022-09-01T03:18:59;101999.22;;;22.30;53.45
13011;BME280;6786;57.632;11.962;2022-09-01T03:21:29;102001.94;;;22.30;53.09
13011;BME280;6786;57.632;11.962;2022-09-01T03:23:58;101999.22;;;22.30;53.31
13011;BME280;6786;57.632;11.962;2022-09-01T03:26:30;101993.84;;;22.30;53.52
13011;BME280;6786;57.632;11.962;2022-09-01T03:28:58;101985.88;;;22.28;53.08
13011;BME280;6786;57.632;11.962;2022-09-01T03:31:28;101994.09;;;22.27;53.60
13011;BME280;6786;57.632;11.962;2022-09-01T03:33:57;101991.41;;;22.27;53.03
13011;BME280;6786;57.632;11.962;2022-09-01T03:36:27;101979.63;;;22.28;53.50
13011;BME280;6786;57.632;11.962;2022-09-01T03:38:55;101983.31;;;22.27;53.48
13011;BME280;6786;57.632;11.962;2022-09-01T03:41:27;101985.28;;;22.25;53.04
13011;BME280;6786;57.632;11.962;2022-09-01T03:43:57;101989.69;;;22.26;53.50
13011;BME280;6786;57.632;11.962;2022-09-01T03:46:27;101983.44;;;22.25;53.16
13011;BME280;6786;57.632;11.962;2022-09-01T03:49:02;101983.56;;;22.24;53.21
13011;BME280;6786;57.632;11.962;2022-09-01T03:51:33;101985.28;;;22.25;53.50
13011;BME280;6786;57.632;11.962;2022-09-01T03:54:04;101979.88;;;22.25;53.28
13011;BME280;6786;57.632;11.962;2022-09-01T03:56:32;101979.06;;;22.24;53.37
13011;BME280;6786;57.632;11.962;2022-09-01T03:59:01;101974.75;;;22.22;53.21
13011;BME280;6786;57.632;11.962;2022-09-01T04:01:33;101981.63;;;22.26;53.14
13011;BME280;6786;57.632;11.962;2022-09-01T04:04:09;101981.63;;;22.26;53.08
13011;BME280;6786;57.632;11.962;2022-09-01T04:06:40;101975.38;;;22.25;53.37
13011;BME280;6786;57.632;11.962;2022-09-01T04:09:08;101964.22;;;22.19;53.13
13011;BME280;6786;57.632;11.962;2022-09-01T04:11:37;101971.69;;;22.26;53.07
13011;BME280;6786;57.632;11.962;2022-09-01T04:14:13;101977.06;;;22.26;53.01
13011;BME280;6786;57.632;11.962;2022-09-01T04:16:42;101968.78;;;22.18;52.79
13011;BME280;6786;57.632;11.962;2022-09-01T04:19:27;101977.94;;;22.27;53.25
13011;BME280;6786;57.632;11.962;2022-09-01T04:21:58;101981.38;;;22.29;53.09
13011;BME280;6786;57.632;11.962;2022-09-01T04:24:28;101976.81;;;22.29;53.28
13011;BME280;6786;57.632;11.962;2022-09-01T04:26:59;101983.31;;;22.27;53.34
13011;BME280;6786;57.632;11.962;2022-09-01T04:29:30;101990.41;;;22.28;53.34
13011;BME280;6786;57.632;11.962;2022-09-01T04:32:01;101982.44;;;22.26;52.91
13011;BME280;6786;57.632;11.962;2022-09-01T04:34:32;101985.03;;;22.28;53.16
13011;BME280;6786;57.632;11.962;2022-09-01T04:37:07;101988.72;;;22.27;53.00
13011;BME280;6786;57.632;11.962;2022-09-01T04:39:35;101976.22;;;22.26;53.17
13011;BME280;6786;57.632;11.962;2022-09-01T04:42:05;101979.88;;;22.25;53.00
13011;BME280;6786;57.632;11.962;2022-09-01T04:44:37;101977.94;;;22.27;53.04
13011;BME280;6786;57.632;11.962;2022-09-01T04:47:05;101973.66;;;22.24;52.81
13011;BME280;6786;57.632;11.962;2022-09-01T04:49:36;101972.53;;;22.27;52.87
13011;BME280;6786;57.632;11.962;2022-09-01T04:52:04;101971.09;;;22.23;52.89
13011;BME280;6786;57.632;11.962;2022-09-01T04:54:32;101974.50;;;22.25;52.80
13011;BME280;6786;57.632;11.962;2022-09-01T04:57:03;101976.22;;;22.26;52.78
13011;BME280;6786;57.632;11.962;2022-09-01T04:59:32;101939.28;;;22.06;52.93
13011;BME280;6786;57.632;11.962;2022-09-01T05:02:02;101966.41;;;22.25;52.87
13011;BME280;6786;57.632;11.962;2022-09-01T05:04:33;101972.53;;;22.27;52.79
13011;BME280;6786;57.632;11.962;2022-09-01T05:07:03;101883.44;;;21.76;52.94
13011;BME280;6786;57.632;11.962;2022-09-01T05:09:33;101975.13;;;22.28;52.68
13011;BME280;6786;57.632;11.962;2022-09-01T05:12:03;101971.69;;;22.26;52.86
13011;BME280;6786;57.632;11.962;2022-09-01T05:14:44;101965.47;;;22.26;52.88
13011;BME280;6786;57.632;11.962;2022-09-01T05:17:15;101970.84;;;22.26;52.93
13011;BME280;6786;57.632;11.962;2022-09-01T05:19:46;101970.84;;;22.26;53.05
13011;BME280;6786;57.632;11.962;2022-09-01T05:22:17;101970.84;;;22.26;52.69
13011;BME280;6786;57.632;11.962;2022-09-01T05:24:48;101967.16;;;22.27;53.05
13011;BME280;6786;57.632;11.962;2022-09-01T05:27:21;101970.84;;;22.26;52.99
13011;BME280;6786;57.632;11.962;2022-09-01T05:29:49;101974.50;;;22.25;52.91
13011;BME280;6786;57.632;11.962;2022-09-01T05:32:20;101968.28;;;22.24;52.99
13011;BME280;6786;57.632;11.962;2022-09-01T05:34:51;101974.50;;;22.25;52.50
13011;BME280;6786;57.632;11.962;2022-09-01T05:37:19;101972.81;;;22.24;52.60
13011;BME280;6786;57.632;11.962;2022-09-01T05:39:48;101979.88;;;22.25;52.52
13011;BME280;6786;57.632;11.962;2022-09-01T05:42:18;101979.88;;;22.25;52.52
13011;BME280;6786;57.632;11.962;2022-09-01T05:44:47;101992.41;;;22.26;52.53
13011;BME280;6786;57.632;11.962;2022-09-01T05:47:19;101986.13;;;22.25;52.83
13011;BME280;6786;57.632;11.962;2022-09-01T05:49:48;101986.13;;;22.25;52.67
13011;BME280;6786;57.632;11.962;2022-09-01T05:52:19;101988.97;;;22.24;52.55
13011;BME280;6786;57.632;11.962;2022-09-01T05:54:52;101981.63;;;22.26;52.45
13011;BME280;6786;57.632;11.962;2022-09-01T05:57:22;101988.72;;;22.27;52.85
13011;BME280;6786;57.632;11.962;2022-09-01T06:00:00;101983.31;;;22.27;52.68
13011;BME280;6786;57.632;11.962;2022-09-01T06:02:29;101985.03;;;22.28;52.70
13011;BME280;6786;57.632;11.962;2022-09-01T06:04:59;101991.41;;;22.27;52.69
13011;BME280;6786;57.632;11.962;2022-09-01T06:07:27;101992.16;;;22.29;52.56
13011;BME280;6786;57.632;11.962;2022-09-01T06:09:55;101990.41;;;22.28;52.45
13011;BME280;6786;57.632;11.962;2022-09-01T06:12:25;101981.88;;;22.23;52.42
13011;BME280;6786;57.632;11.962;2022-09-01T06:14:55;101995.78;;;22.28;52.32
13011;BME280;6786;57.632;11.962;2022-09-01T06:17:25;101993.84;;;22.30;52.38
13011;BME280;6786;57.632;11.962;2022-09-01T06:20:02;101992.16;;;22.29;52.69
13011;BME280;6786;57.632;11.962;2022-09-01T06:22:37;101994.09;;;22.27;52.28
13011;BME280;6786;57.632;11.962;2022-09-01T06:25:07;102001.19;;;22.28;52.66
13011;BME280;6786;57.632;11.962;2022-09-01T06:27:35;101996.66;;;22.28;52.60
13011;BME280;6786;57.632;11.962;2022-09-01T06:30:11;101982.94;;;22.20;52.56
13011;BME280;6786;57.632;11.962;2022-09-01T06:32:48;102002.06;;;22.28;52.42
13011;BME280;6786;57.632;11.962;2022-09-01T06:35:19;101996.78;;;22.27;52.48
13011;BME280;6786;57.632;11.962;2022-09-01T06:37:47;101995.78;;;22.28;52.33
13011;BME280;6786;57.632;11.962;2022-09-01T06:40:15;101993.22;;;22.26;52.46
13011;BME280;6786;57.632;11.962;2022-09-01T06:42:44;101997.53;;;22.29;52.58
13011;BME280;6786;57.632;11.962;2022-09-01T06:45:13;101988.22;;;22.22;52.13
13011;BME280;6786;57.632;11.962;2022-09-01T06:47:42;101983.31;;;22.27;52.46
13011;BME280;6786;57.632;11.962;2022-09-01T06:50:11;101956.19;;;22.08;52.33
13011;BME280;6786;57.632;11.962;2022-09-01T06:53:02;101992.16;;;22.29;52.10
13011;BME280;6786;57.632;11.962;2022-09-01T06:55:54;101986.75;;;22.29;52.52
13011;BME280;6786;57.632;11.962;2022-09-01T06:58:23;101943.69;;;22.07;52.46
13011;BME280;6786;57.632;11.962;2022-09-01T07:00:51;101988.47;;;22.30;52.48
13011;BME280;6786;57.632;11.962;2022-09-01T07:03:19;101987.59;;;22.29;52.12
13011;BME280;6786;57.632;11.962;2022-09-01T07:05:49;101986.75;;;22.29;52.54
13011;BME280;6786;57.632;11.962;2022-09-01T07:08:37;101984.06;;;22.29;52.20
13011;BME280;6786;57.632;11.962;2022-09-01T07:11:28;101954.44;;;22.07;52.49
13011;BME280;6786;57.632;11.962;2022-09-01T07:14:18;101990.41;;;22.28;52.46
13011;BME280;6786;57.632;11.962;2022-09-01T07:16:47;102003.75;;;22.29;52.50
13011;BME280;6786;57.632;11.962;2022-09-01T07:19:19;101999.22;;;22.30;52.15
13011;BME280;6786;57.632;11.962;2022-09-01T07:21:47;101993.84;;;22.30;52.29
13011;BME280;6786;57.632;11.962;2022-09-01T07:24:36;101999.22;;;22.30;52.51
13011;BME280;6786;57.632;11.962;2022-09-01T07:27:05;102004.63;;;22.30;52.08
13011;BME280;6786;57.632;11.962;2022-09-01T07:29:54;102000.09;;;22.30;52.47
13011;BME280;6786;57.632;11.962;2022-09-01T07:32:23;102000.94;;;22.31;52.07
13011;BME280;6786;57.632;11.962;2022-09-01T07:35:11;102002.91;;;22.29;52.48
13011;BME280;6786;57.632;11.962;2022-09-01T07:37:40;102001.19;;;22.28;52.10
13011;BME280;6786;57.632;11.962;2022-09-01T07:40:30;101997.53;;;22.29;52.18
13011;BME280;6786;57.632;11.962;2022-09-01T07:43:23;101999.34;;;22.28;52.25
13011;BME280;6786;57.632;11.962;2022-09-01T07:46:02;101994.09;;;22.27;52.04
13011;BME280;6786;57.632;11.962;2022-09-01T07:48:52;102006.56;;;22.28;52.10
13011;BME280;6786;57.632;11.962;2022-09-01T07:51:41;102004.88;;;22.27;52.45
13011;BME280;6786;57.632;11.962;2022-09-01T07:54:09;102021.03;;;22.27;52.20
13011;BME280;6786;57.632;11.962;2022-09-01T07:56:41;102011.97;;;22.28;52.45
13011;BME280;6786;57.632;11.962;2022-09-01T07:59:10;102011.97;;;22.28;52.06
13011;BME280;6786;57.632;11.962;2022-09-01T08:01:41;102010.25;;;22.27;52.09
13011;BME280;6786;57.632;11.962;2022-09-01T08:04:09;102014.66;;;22.28;52.49
13011;BME280;6786;57.632;11.962;2022-09-01T08:06:38;102024.47;;;22.29;52.33
13011;BME280;6786;57.632;11.962;2022-09-01T08:09:07;102014.53;;;22.29;52.40
13011;BME280;6786;57.632;11.962;2022-09-01T08:11:52;102012.81;;;22.28;52.27
13011;BME280;6786;57.632;11.962;2022-09-01T08:14:28;102017.34;;;22.28;52.37
13011;BME280;6786;57.632;11.962;2022-09-01T08:17:01;102017.34;;;22.28;52.31
13011;BME280;6786;57.632;11.962;2022-09-01T08:19:49;102017.34;;;22.28;52.16
13011;BME280;6786;57.632;11.962;2022-09-01T08:22:19;102019.06;;;22.29;52.10
13011;BME280;6786;57.632;11.962;2022-09-01T08:24:50;102014.66;;;22.28;52.30
13011;BME280;6786;57.632;11.962;2022-09-01T08:27:20;102013.69;;;22.29;52.05
13011;BME280;6786;57.632;11.962;2022-09-01T08:29:48;102011.00;;;22.29;52.18
13011;BME280;6786;57.632;11.962;2022-09-01T08:32:16;102005.59;;;22.29;52.13
13011;BME280;6786;57.632;11.962;2022-09-01T08:34:46;102006.44;;;22.29;52.38
13011;BME280;6786;57.632;11.962;2022-09-01T08:37:14;102012.69;;;22.30;52.18
13011;BME280;6786;57.632;11.962;2022-09-01T08:39:42;102007.19;;;22.31;52.04
13011;BME280;6786;57.632;11.962;2022-09-01T08:42:17;102000.09;;;22.30;51.99
13011;BME280;6786;57.632;11.962;2022-09-01T08:44:56;102004.63;;;22.30;51.99
13011;BME280;6786;57.632;11.962;2022-09-01T08:47:25;102010.88;;;22.30;51.92
13011;BME280;6786;57.632;11.962;2022-09-01T08:50:10;102005.47;;;22.30;52.27
13011;BME280;6786;57.632;11.962;2022-09-01T08:52:42;101995.78;;;22.28;52.28
13011;BME280;6786;57.632;11.962;2022-09-01T08:55:15;101999.22;;;22.30;52.26
13011;BME280;6786;57.632;11.962;2022-09-01T08:57:47;102004.63;;;22.30;52.00
13011;BME280;6786;57.632;11.962;2022-09-01T09:00:27;102003.63;;;22.31;52.28
13011;BME280;6786;57.632;11.962;2022-09-01T09:03:03;102000.94;;;22.31;51.98
13011;BME280;6786;57.632;11.962;2022-09-01T09:05:55;101995.53;;;22.31;52.25
13011;BME280;6786;57.632;11.962;2022-09-01T09:08:51;102000.09;;;22.30;51.82
13011;BME280;6786;57.632;11.962;2022-09-01T09:14:40;101992.28;;;22.27;52.12
13011;BME280;6786;57.632;11.962;2022-09-01T09:17:15;101994.72;;;22.30;52.10
13011;BME280;6786;57.632;11.962;2022-09-01T09:19:44;101993.84;;;22.30;52.25
13011;BME280;6786;57.632;11.962;2022-09-01T09:22:15;101988.47;;;22.30;52.33
13011;BME280;6786;57.632;11.962;2022-09-01T09:24:48;101984.78;;;22.31;52.32
13011;BME280;6786;57.632;11.962;2022-09-01T09:27:20;101991.88;;;22.32;52.29
13011;BME280;6786;57.632;11.962;2022-09-01T09:29:50;101986.50;;;22.32;52.20
13011;BME280;6786;57.632;11.962;2022-09-01T09:32:21;101991.03;;;22.31;52.09
13011;BME280;6786;57.632;11.962;2022-09-01T09:35:32;101974.00;;;22.31;51.52
13011;BME280;6786;57.632;11.962;2022-09-01T09:38:15;101968.84;;;22.28;51.66
13011;BME280;6786;57.632;11.962;2022-09-01T09:41:00;101967.16;;;22.27;52.11
13011;BME280;6786;57.632;11.962;2022-09-01T09:43:46;101971.44;;;22.29;52.31
13011;BME280;6786;57.632;11.962;2022-09-01T09:46:27;101967.91;;;22.29;51.95
13011;BME280;6786;57.632;11.962;2022-09-01T09:49:12;101965.22;;;22.29;51.86
13011;BME280;6786;57.632;11.962;2022-09-01T09:51:43;101974.25;;;22.28;52.28
13011;BME280;6786;57.632;11.962;2022-09-01T09:54:21;101965.22;;;22.29;52.26
13011;BME280;6786;57.632;11.962;2022-09-01T09:57:03;101967.16;;;22.27;52.11
13011;BME280;6786;57.632;11.962;2022-09-01T09:59:35;101959.81;;;22.29;52.20
13011;BME280;6786;57.632;11.962;2022-09-01T10:02:27;101971.44;;;22.29;51.95
13011;BME280;6786;57.632;11.962;2022-09-01T10:05:06;101957.13;;;22.29;51.90
13011;BME280;6786;57.632;11.962;2022-09-01T10:07:48;101959.81;;;22.29;52.19
13011;BME280;6786;57.632;11.962;2022-09-01T10:10:29;101964.34;;;22.28;52.08
13011;BME280;6786;57.632;11.962;2022-09-01T10:12:58;101960.66;;;22.29;51.97
13011;BME280;6786;57.632;11.962;2022-09-01T10:15:31;101958.09;;;22.28;52.29
13011;BME280;6786;57.632;11.962;2022-09-01T10:18:05;101952.69;;;22.28;52.21
13011;BME280;6786;57.632;11.962;2022-09-01T10:20:58;101941.94;;;22.28;51.93
13011;BME280;6786;57.632;11.962;2022-09-01T10:23:28;101948.19;;;22.28;51.97
13011;BME280;6786;57.632;11.962;2022-09-01T10:26:01;101945.63;;;22.27;51.90
13011;BME280;6786;57.632;11.962;2022-09-01T10:28:40;101947.31;;;22.28;52.28
13011;BME280;6786;57.632;11.962;2022-09-01T10:31:16;101950.75;;;22.30;52.23
13011;BME280;6786;57.632;11.962;2022-09-01T10:33:44;101950.75;;;22.30;52.04
13011;BME280;6786;57.632;11.962;2022-09-01T10:36:15;101951.75;;;22.29;51.99
13011;BME280;6786;57.632;11.962;2022-09-01T10:38:43;101954.44;;;22.29;51.90
13011;BME280;6786;57.632;11.962;2022-09-01T10:41:51;101943.66;;;22.29;52.11
13011;BME280;6786;57.632;11.962;2022-09-01T10:44:27;101938.28;;;22.29;51.87
13011;BME280;6786;57.632;11.962;2022-09-01T10:47:06;101941.94;;;22.28;52.22
13011;BME280;6786;57.632;11.962;2022-09-01T10:49:56;101948.91;;;22.30;51.84
13011;BME280;6786;57.632;11.962;2022-09-01T10:53:04;101946.34;;;22.29;51.77
13011;BME280;6786;57.632;11.962;2022-09-01T10:55:43;101941.94;;;22.28;52.16
13011;BME280;6786;57.632;11.962;2022-09-01T11:02:14;101941.94;;;22.28;52.17
13011;BME280;6786;57.632;11.962;2022-09-01T11:05:12;101947.56;;;22.25;52.29
13011;BME280;6786;57.632;11.962;2022-09-01T11:07:42;101935.84;;;22.26;52.03
13011;BME280;6786;57.632;11.962;2022-09-01T11:10:49;101936.78;;;22.25;52.26
13011;BME280;6786;57.632;11.962;2022-09-01T11:13:34;101933.25;;;22.24;52.20
13011;BME280;6786;57.632;11.962;2022-09-01T11:16:23;101942.19;;;22.25;52.31
13011;BME280;6786;57.632;11.962;2022-09-01T11:19:31;101941.34;;;22.24;52.08
13011;BME280;6786;57.632;11.962;2022-09-01T11:22:21;101936.78;;;22.25;52.34
13011;BME280;6786;57.632;11.962;2022-09-01T11:28:36;101927.75;;;22.26;51.72
13011;BME280;6786;57.632;11.962;2022-09-01T11:31:21;101927.75;;;22.26;52.04
13011;BME280;6786;57.632;11.962;2022-09-01T11:34:15;101940.22;;;22.27;51.93
13011;BME280;6786;57.632;11.962;2022-09-01T11:36:57;101929.44;;;22.27;51.93
13011;BME280;6786;57.632;11.962;2022-09-01T11:39:35;101925.88;;;22.26;52.10
13011;BME280;6786;57.632;11.962;2022-09-01T11:42:10;101924.06;;;22.27;52.03
13011;BME280;6786;57.632;11.962;2022-09-01T11:44:45;101925.75;;;22.28;52.33
13011;BME280;6786;57.632;11.962;2022-09-01T11:47:17;101916.72;;;22.29;51.89
13011;BME280;6786;57.632;11.962;2022-09-01T11:49:50;101922.13;;;22.29;52.01
13011;BME280;6786;57.632;11.962;2022-09-01T11:52:21;101921.13;;;22.30;52.16
13011;BME280;6786;57.632;11.962;2022-09-01T11:54:50;101927.50;;;22.29;51.95
13011;BME280;6786;57.632;11.962;2022-09-01T11:57:22;101915.13;;;22.26;52.32
13011;BME280;6786;57.632;11.962;2022-09-01T11:59:51;101915.72;;;22.30;52.41
13011;BME280;6786;57.632;11.962;2022-09-01T12:02:21;101900.56;;;22.29;51.93
13011;BME280;6786;57.632;11.962;2022-09-01T12:04:52;101907.03;;;22.26;52.29
13011;BME280;6786;57.632;11.962;2022-09-01T12:07:34;101917.56;;;22.29;52.18
13011;BME280;6786;57.632;11.962;2022-09-01T12:10:13;101908.66;;;22.29;51.92
13011;BME280;6786;57.632;11.962;2022-09-01T12:12:42;101914.03;;;22.29;52.50
13011;BME280;6786;57.632;11.962;2022-09-01T12:15:23;101904.22;;;22.28;52.28
13011;BME280;6786;57.632;11.962;2022-09-01T12:17:52;101900.81;;;22.26;52.39
13011;BME280;6786;57.632;11.962;2022-09-01T12:20:36;101900.81;;;22.26;52.20
13011;BME280;6786;57.632;11.962;2022-09-01T12:23:16;101896.50;;;22.23;52.15
13011;BME280;6786;57.632;11.962;2022-09-01T12:25:46;101903.38;;;22.27;51.99
13011;BME280;6786;57.632;11.962;2022-09-01T12:28:14;101897.38;;;22.24;52.06
13011;BME280;6786;57.632;11.962;2022-09-01T12:30:44;101882.91;;;22.25;52.06
13011;BME280;6786;57.632;11.962;2022-09-01T12:33:12;101888.06;;;22.28;52.33
13011;BME280;6786;57.632;11.962;2022-09-01T12:36:19;101886.34;;;22.27;52.03
13011;BME280;6786;57.632;11.962;2022-09-01T12:38:48;101886.34;;;22.27;52.09
13011;BME280;6786;57.632;11.962;2022-09-01T12:41:25;101879.28;;;22.26;52.45
13011;BME280;6786;57.632;11.962;2022-09-01T12:43:54;101882.91;;;22.25;52.48
13011;BME280;6786;57.632;11.962;2022-09-01T12:46:44;101872.16;;;22.25;52.30
13011;BME280;6786;57.632;11.962;2022-09-01T12:49:16;101875.72;;;22.25;52.03
13011;BME280;6786;57.632;11.962;2022-09-01T12:51:45;101871.31;;;22.24;52.10
13011;BME280;6786;57.632;11.962;2022-09-01T12:54:14;101873.88;;;22.26;52.18
13011;BME280;6786;57.632;11.962;2022-09-01T12:56:47;101873.88;;;22.26;52.06
13011;BME280;6786;57.632;11.962;2022-09-01T12:59:22;101882.66;;;22.28;52.47
13011;BME280;6786;57.632;11.962;2022-09-01T13:02:33;101874.59;;;22.28;52.35
13011;BME280;6786;57.632;11.962;2022-09-01T13:05:33;101870.19;;;22.27;52.17
13011;BME280;6786;57.632;11.962;2022-09-01T13:08:09;101868.25;;;22.29;52.36
13011;BME280;6786;57.632;11.962;2022-09-01T13:10:39;101866.50;;;22.28;52.11
13011;BME280;6786;57.632;11.962;2022-09-01T13:13:10;101856.25;;;22.22;52.22
13011;BME280;6786;57.632;11.962;2022-09-01T13:15:41;101861.38;;;22.25;52.31
13011;BME280;6786;57.632;11.962;2022-09-01T13:18:11;101868.50;;;22.26;51.95
13011;BME280;6786;57.632;11.962;2022-09-01T13:20:39;101862.97;;;22.27;52.13
13011;BME280;6786;57.632;11.962;2022-09-01T13:23:09;101870.19;;;22.27;52.34
13011;BME280;6786;57.632;11.962;2022-09-01T13:25:38;101861.13;;;22.28;51.96
13011;BME280;6786;57.632;11.962;2022-09-01T13:28:10;101862.13;;;22.27;52.23
13011;BME280;6786;57.632;11.962;2022-09-01T13:30:39;101866.75;;;22.25;52.01
13011;BME280;6786;57.632;11.962;2022-09-01T13:33:07;101861.13;;;22.28;51.86
13011;BME280;6786;57.632;11.962;2022-09-01T13:35:48;101859.41;;;22.27;52.04